Time;durP1;ratioP1;P1;durP2;ratioP2;P2;SDS_P1;SDS_P2;PMS_P1;PMS_P2;Temp;Humidity;BMP_temperature;BMP_pressure;BME280_temperature;BME280_humidity;BME280_pressure;Samples;Min_cycle;Max_cycle;Signal;HPM_P1;HPM_P2
2023/11/21 08:49:59;;;;;;;12.77;5.00;;;12.00;99.90;;;;;;4950423;23;20237;-79
2023/11/21 08:52:26;;;;;;;12.70;5.50;;;12.10;99.90;;;;;;4909205;29;20210;-79
2023/11/21 08:54:55;;;;;;;12.57;4.73;;;12.30;99.90;;;;;;4915503;29;20292;-80
2023/11/21 08:57:22;;;;;;;14.43;4.80;;;12.30;99.90;;;;;;4918314;29;20234;-76
2023/11/21 08:59:55;;;;;;;10.87;5.00;;;12.30;99.90;;;;;;4918459;29;20300;-77
2023/11/21 09:02:23;;;;;;;11.50;5.53;;;12.20;99.90;;;;;;4918229;29;20252;-77
2023/11/21 09:04:50;;;;;;;11.60;4.60;;;12.20;99.90;;;;;;4918077;29;20292;-77
2023/11/21 09:07:20;;;;;;;12.13;5.50;;;12.30;99.90;;;;;;4921716;29;20209;-76
2023/11/21 09:09:47;;;;;;;12.17;4.97;;;12.30;99.90;;;;;;4918640;29;20209;-76
2023/11/21 09:12:14;;;;;;;14.40;4.80;;;12.30;99.90;;;;;;4918096;29;20277;-77
2023/11/21 09:14:41;;;;;;;15.53;5.20;;;12.30;99.90;;;;;;4918078;29;20760;-79
2023/11/21 09:17:11;;;;;;;12.57;4.83;;;12.30;99.90;;;;;;4917843;29;20245;-76
2023/11/21 09:19:38;;;;;;;14.03;5.00;;;12.30;99.90;;;;;;4918426;29;20300;-77
2023/11/21 09:22:05;;;;;;;14.23;5.43;;;12.20;99.90;;;;;;4918426;29;20206;-76
2023/11/21 09:24:34;;;;;;;15.07;5.40;;;12.30;99.90;;;;;;4918270;29;20216;-77
2023/11/21 09:27:01;;;;;;;18.80;5.93;;;12.40;99.90;;;;;;4917515;29;20707;-76
2023/11/21 09:29:28;;;;;;;14.87;5.47;;;12.40;99.90;;;;;;4918089;29;20565;-76
2023/11/21 09:31:59;;;;;;;15.43;5.17;;;12.40;99.90;;;;;;4916981;29;20229;-78
2023/11/21 09:34:26;;;;;;;17.13;4.97;;;12.40;99.90;;;;;;4917953;29;20205;-73
2023/11/21 09:36:53;;;;;;;15.27;4.97;;;12.20;99.90;;;;;;4917563;29;20245;-76
2023/11/21 09:39:20;;;;;;;14.33;5.60;;;12.30;99.90;;;;;;4917538;29;20296;-75
2023/11/21 09:41:53;;;;;;;13.90;5.33;;;12.40;99.90;;;;;;4917935;29;20213;-75
2023/11/21 09:44:28;;;;;;;15.33;6.10;;;12.40;99.90;;;;;;4917384;29;20213;-77
2023/11/21 09:46:59;;;;;;;15.37;4.93;;;12.40;99.90;;;;;;4917369;29;20229;-76
2023/11/21 09:49:28;;;;;;;12.63;4.37;;;12.50;99.90;;;;;;4917315;29;20225;-77
2023/11/21 09:51:57;;;;;;;14.30;4.90;;;12.30;99.90;;;;;;4917402;29;20268;-76
2023/11/21 09:54:24;;;;;;;17.23;5.80;;;12.30;99.90;;;;;;4917598;29;20291;-77
2023/11/21 09:56:52;;;;;;;14.57;5.80;;;12.40;99.90;;;;;;4917129;29;20241;-77
2023/11/21 09:59:20;;;;;;;12.93;5.27;;;12.50;99.90;;;;;;4917300;29;20256;-76
2023/11/21 10:01:47;;;;;;;12.20;5.03;;;12.50;99.90;;;;;;4917151;29;20238;-75
2023/11/21 10:04:16;;;;;;;15.20;5.50;;;12.50;99.90;;;;;;4917174;29;20209;-76
2023/11/21 10:06:43;;;;;;;16.67;5.30;;;12.50;99.90;;;;;;4917067;29;20234;-76
2023/11/21 10:09:11;;;;;;;13.43;5.03;;;12.60;99.90;;;;;;4917130;29;20206;-76
2023/11/21 10:11:42;;;;;;;14.40;5.20;;;12.60;99.90;;;;;;4916831;29;20252;-76
2023/11/21 10:14:13;;;;;;;18.90;6.47;;;12.50;99.90;;;;;;4916976;29;20229;-76
2023/11/21 10:16:41;;;;;;;13.83;5.13;;;12.60;99.90;;;;;;4916580;29;20693;-75
2023/11/21 10:19:13;;;;;;;13.03;5.00;;;12.50;99.90;;;;;;4916762;29;20265;-75
2023/11/21 10:21:40;;;;;;;15.07;4.97;;;12.40;99.90;;;;;;4917069;29;20209;-76
2023/11/21 10:24:08;;;;;;;14.33;5.47;;;12.40;99.90;;;;;;4916841;29;20300;-76
2023/11/21 10:26:36;;;;;;;12.50;5.57;;;12.20;99.90;;;;;;4916914;29;20246;-76
2023/11/21 10:29:04;;;;;;;9.77;4.30;;;12.30;99.90;;;;;;4916834;29;20206;-78
2023/11/21 10:31:33;;;;;;;13.80;6.30;;;12.20;99.90;;;;;;4916803;29;20213;-77
2023/11/21 10:34:14;;;;;;;9.17;4.20;;;12.20;99.90;;;;;;4916723;29;20572;-77
2023/11/21 10:36:41;;;;;;;10.30;4.53;;;12.30;99.90;;;;;;4916144;29;20304;-78
2023/11/21 10:39:09;;;;;;;11.23;4.57;;;12.40;99.90;;;;;;4916925;29;20336;-79
2023/11/21 10:41:36;;;;;;;12.87;4.93;;;12.40;99.90;;;;;;4917101;29;20209;-78
2023/11/21 10:44:06;;;;;;;12.67;3.97;;;12.50;99.90;;;;;;4919045;29;20209;-77
2023/11/21 10:46:35;;;;;;;10.27;4.90;;;12.50;99.90;;;;;;4916468;29;20643;-77
2023/11/21 10:49:02;;;;;;;11.23;4.73;;;12.60;99.90;;;;;;4916438;29;20222;-75
2023/11/21 10:51:29;;;;;;;11.60;4.90;;;12.80;99.90;;;;;;4916197;29;20206;-77
2023/11/21 10:53:59;;;;;;;11.50;4.53;;;12.90;99.90;;;;;;4916459;29;20269;-78
2023/11/21 10:56:30;;;;;;;11.23;4.70;;;13.00;99.90;;;;;;4916402;29;20237;-77
2023/11/21 10:58:57;;;;;;;9.53;4.57;;;13.00;99.90;;;;;;4916341;29;20212;-77
2023/11/21 11:01:29;;;;;;;8.07;4.13;;;12.90;99.90;;;;;;4915981;29;20241;-77
2023/11/21 11:03:57;;;;;;;12.03;5.53;;;13.00;99.90;;;;;;4916470;29;20206;-76
2023/11/21 11:06:27;;;;;;;8.80;3.97;;;13.20;99.90;;;;;;4916334;29;20260;-77
2023/11/21 11:08:55;;;;;;;12.70;5.17;;;13.20;99.90;;;;;;4916249;29;20210;-77
2023/11/21 11:11:22;;;;;;;8.07;4.30;;;13.20;99.90;;;;;;4915951;29;20237;-78
2023/11/21 11:13:48;;;;;;;12.37;4.40;;;13.40;99.90;;;;;;4915760;29;20216;-78
2023/11/21 11:16:18;;;;;;;10.87;4.60;;;13.40;99.90;;;;;;4916164;29;20252;-78
2023/11/21 11:18:47;;;;;;;10.33;4.80;;;13.40;99.90;;;;;;4916451;29;20284;-80
2023/11/21 11:21:32;;;;;;;16.40;5.33;;;13.30;99.90;;;;;;4916448;29;20292;-81
2023/11/21 11:24:31;;;;;;;11.27;4.87;;;13.20;99.90;;;;;;4916354;29;20210;-77
2023/11/21 11:27:08;;;;;;;12.80;5.43;;;13.20;99.90;;;;;;4922322;29;20230;-77
2023/11/21 11:29:43;;;;;;;11.63;4.80;;;13.20;99.90;;;;;;4915239;29;20573;-76
2023/11/21 11:32:21;;;;;;;10.70;5.37;;;13.10;99.90;;;;;;4914437;29;20736;-75
2023/11/21 11:34:57;;;;;;;11.97;4.87;;;13.00;99.90;;;;;;4913946;29;20209;-73
2023/11/21 11:37:25;;;;;;;9.23;4.70;;;13.00;99.90;;;;;;4914757;29;20336;-74
2023/11/21 11:39:54;;;;;;;12.43;5.93;;;13.10;99.90;;;;;;4916498;29;20213;-74
2023/11/21 11:42:23;;;;;;;11.80;4.57;;;13.10;99.90;;;;;;4916521;29;20233;-74
2023/11/21 11:44:52;;;;;;;13.37;5.23;;;13.20;99.90;;;;;;4915923;29;20232;-75
2023/11/21 11:47:23;;;;;;;11.33;5.00;;;13.20;99.90;;;;;;4916025;29;20205;-74
2023/11/21 11:50:13;;;;;;;11.77;5.33;;;13.10;99.90;;;;;;4915845;29;20217;-74
2023/11/21 11:52:43;;;;;;;9.37;4.70;;;13.20;99.90;;;;;;4916411;29;20213;-74
2023/11/21 11:55:11;;;;;;;9.43;4.70;;;13.30;99.90;;;;;;4916125;29;20325;-74
2023/11/21 11:57:39;;;;;;;12.63;5.37;;;13.30;99.90;;;;;;4919552;29;20229;-74
2023/11/21 12:00:37;;;;;;;12.53;5.87;;;13.50;99.90;;;;;;4919670;29;20553;-74
2023/11/21 12:03:05;;;;;;;11.20;4.80;;;13.50;99.90;;;;;;4919832;29;20266;-74
2023/11/21 12:05:35;;;;;;;11.67;4.83;;;13.60;99.90;;;;;;4919426;29;20324;-74
2023/11/21 12:08:05;;;;;;;14.77;5.10;;;13.40;99.90;;;;;;4919526;29;20261;-74
2023/11/21 12:10:34;;;;;;;9.57;4.70;;;13.40;99.90;;;;;;4919725;29;20704;-75
2023/11/21 12:13:02;;;;;;;9.60;4.93;;;13.40;99.90;;;;;;4919904;29;20304;-74
2023/11/21 12:15:31;;;;;;;11.27;5.10;;;13.40;99.90;;;;;;4919315;29;20605;-75
2023/11/21 12:17:59;;;;;;;10.77;4.30;;;13.40;99.90;;;;;;4919309;29;20336;-75
2023/11/21 12:20:27;;;;;;;12.70;5.40;;;13.40;99.90;;;;;;4919287;29;20217;-75
2023/11/21 12:22:55;;;;;;;10.47;4.97;;;13.40;99.90;;;;;;4916481;29;20711;-76
2023/11/21 12:25:28;;;;;;;10.67;5.03;;;13.40;99.90;;;;;;4918213;29;20232;-74
2023/11/21 12:27:55;;;;;;;9.47;4.90;;;13.40;99.90;;;;;;4919279;29;20248;-75
2023/11/21 12:30:23;;;;;;;9.30;5.20;;;13.40;99.90;;;;;;4930715;29;20307;-76
2023/11/21 12:32:52;;;;;;;9.90;4.37;;;13.30;99.90;;;;;;4936457;29;20215;-75
2023/11/21 12:35:19;;;;;;;9.27;4.60;;;13.20;99.90;;;;;;4918513;29;20240;-76
2023/11/21 12:37:47;;;;;;;8.47;4.57;;;13.00;99.90;;;;;;4918504;29;20265;-74
2023/11/21 12:40:17;;;;;;;7.80;3.90;;;13.00;99.90;;;;;;4918701;29;20308;-74
2023/11/21 12:42:48;;;;;;;9.03;4.40;;;13.00;99.90;;;;;;4932111;29;20592;-74
2023/11/21 12:45:25;;;;;;;8.97;4.00;;;13.00;99.90;;;;;;4899847;29;20253;-75
2023/11/21 12:47:56;;;;;;;9.27;4.77;;;12.90;99.90;;;;;;4900181;29;20213;-74
2023/11/21 12:50:26;;;;;;;10.17;5.37;;;13.00;99.90;;;;;;4918991;29;20585;-75
2023/11/21 12:52:53;;;;;;;9.90;4.67;;;13.00;99.90;;;;;;4918325;29;20238;-75
2023/11/21 12:55:22;;;;;;;11.00;4.37;;;13.00;99.90;;;;;;4918261;29;20238;-75
2023/11/21 12:57:54;;;;;;;12.37;4.47;;;13.00;99.90;;;;;;4918114;29;20241;-74
2023/11/21 13:00:28;;;;;;;9.10;3.83;;;13.00;99.90;;;;;;4918328;29;20220;-76
2023/11/21 13:02:56;;;;;;;9.93;4.73;;;13.00;99.90;;;;;;4918371;29;20711;-75
2023/11/21 13:05:31;;;;;;;8.03;4.37;;;13.00;99.90;;;;;;4918264;29;20230;-76
2023/11/21 13:08:02;;;;;;;8.67;3.87;;;13.20;99.90;;;;;;4918071;29;20219;-75
2023/11/21 13:10:31;;;;;;;7.73;2.73;;;13.20;99.90;;;;;;4899280;29;20218;-76
2023/11/21 13:13:00;;;;;;;4.57;2.73;;;13.10;99.90;;;;;;4900426;29;20214;-75
2023/11/21 13:15:28;;;;;;;4.47;2.60;;;13.10;99.90;;;;;;4899422;29;20563;-73
2023/11/21 13:17:56;;;;;;;4.50;2.77;;;13.10;99.90;;;;;;4904548;29;20236;-75
2023/11/21 13:20:24;;;;;;;5.40;2.77;;;13.00;99.90;;;;;;4918314;29;20210;-74
2023/11/21 13:22:54;;;;;;;5.70;2.73;;;12.90;99.90;;;;;;4917805;29;20221;-75
2023/11/21 13:25:23;;;;;;;4.50;2.40;;;12.90;99.90;;;;;;4917700;29;20775;-78
2023/11/21 13:27:49;;;;;;;5.63;2.40;;;12.70;99.90;;;;;;4917981;29;20217;-75
2023/11/21 13:30:22;;;;;;;4.40;2.47;;;12.60;99.90;;;;;;4918027;29;20261;-76
2023/11/21 13:32:51;;;;;;;4.60;2.10;;;12.60;99.90;;;;;;4917797;29;20210;-77
2023/11/21 13:35:21;;;;;;;3.87;1.90;;;12.50;99.90;;;;;;4917347;29;20236;-78
2023/11/21 13:37:51;;;;;;;2.97;1.80;;;12.40;99.90;;;;;;4917446;29;20233;-74
2023/11/21 13:40:22;;;;;;;4.10;1.80;;;12.40;99.90;;;;;;4917108;29;20213;-75
2023/11/21 13:42:53;;;;;;;1.97;1.50;;;12.50;99.90;;;;;;4917970;29;20212;-77
2023/11/21 13:45:22;;;;;;;2.90;1.43;;;12.50;99.90;;;;;;4915376;29;20430;-75
2023/11/21 13:47:51;;;;;;;1.77;1.13;;;12.50;99.90;;;;;;4917322;29;20569;-74
2023/11/21 13:50:22;;;;;;;5.97;1.63;;;12.60;99.90;;;;;;4917199;29;20241;-75
2023/11/21 13:52:51;;;;;;;5.13;1.73;;;12.60;99.90;;;;;;4917450;29;20609;-75
2023/11/21 13:55:18;;;;;;;2.67;1.60;;;12.50;99.90;;;;;;4917470;29;20230;-76
2023/11/21 13:57:49;;;;;;;3.17;2.07;;;12.50;99.90;;;;;;4917168;29;20738;-75
2023/11/21 14:00:40;;;;;;;2.43;1.60;;;12.50;99.90;;;;;;4917279;29;20220;-75
2023/11/21 14:03:17;;;;;;;3.77;1.67;;;12.60;99.90;;;;;;4917090;29;20210;-75
2023/11/21 14:05:44;;;;;;;2.00;1.53;;;12.70;99.90;;;;;;4916878;29;20229;-77
2023/11/21 14:08:16;;;;;;;3.40;1.30;;;12.60;99.90;;;;;;4916853;29;20209;-75
2023/11/21 14:10:44;;;;;;;2.37;1.40;;;12.60;99.90;;;;;;4916741;29;20206;-76
2023/11/21 14:13:12;;;;;;;4.50;1.50;;;12.50;99.90;;;;;;4916820;29;20225;-75
2023/11/21 14:15:43;;;;;;;1.97;1.20;;;12.50;99.90;;;;;;4916536;29;20776;-75
2023/11/21 14:18:11;;;;;;;3.20;1.33;;;12.50;99.90;;;;;;4921041;29;20300;-76
2023/11/21 14:20:39;;;;;;;1.40;1.00;;;12.40;99.90;;;;;;4918386;29;20206;-75
2023/11/21 14:23:07;;;;;;;2.23;1.30;;;12.40;99.90;;;;;;4917008;29;20233;-75
2023/11/21 14:25:36;;;;;;;3.10;1.10;;;12.30;99.90;;;;;;4916707;29;20316;-76
2023/11/21 14:28:04;;;;;;;1.60;0.97;;;12.40;99.90;;;;;;4916931;29;20220;-74
2023/11/21 14:30:31;;;;;;;2.87;1.60;;;12.40;99.90;;;;;;4916796;29;20205;-77
2023/11/21 14:32:58;;;;;;;3.40;1.00;;;12.40;99.90;;;;;;4916551;29;20217;-76
2023/11/21 14:35:27;;;;;;;1.50;0.93;;;12.40;99.90;;;;;;4916440;29;20312;-75
2023/11/21 14:37:55;;;;;;;3.70;1.07;;;12.30;99.90;;;;;;4916776;29;20336;-75
2023/11/21 14:40:24;;;;;;;3.17;1.10;;;12.30;99.90;;;;;;4917119;29;20212;-75
2023/11/21 14:42:54;;;;;;;2.07;1.03;;;12.20;99.90;;;;;;4916621;29;20209;-77
2023/11/21 14:45:22;;;;;;;2.33;1.00;;;12.20;99.90;;;;;;4917042;29;20233;-76
2023/11/21 14:47:57;;;;;;;1.53;0.90;;;12.20;99.90;;;;;;4916455;29;20217;-73
2023/11/21 14:53:38;;;;;;;1.90;1.00;;;12.10;99.90;;;;;;4893456;29;20249;-74
2023/11/21 14:56:04;;;;;;;2.10;1.10;;;12.10;99.90;;;;;;4916553;29;20240;-77
2023/11/21 14:58:31;;;;;;;1.70;1.00;;;11.90;99.90;;;;;;4916436;29;20241;-73
2023/11/21 15:00:58;;;;;;;2.03;0.90;;;11.90;99.90;;;;;;4916613;29;20304;-74
2023/11/21 15:03:43;;;;;;;1.77;0.93;;;11.80;99.90;;;;;;4916749;29;20658;-74
2023/11/21 15:06:19;;;;;;;2.37;1.23;;;11.70;99.90;;;;;;4916585;29;20234;-75
2023/11/21 15:08:55;;;;;;;1.80;1.00;;;11.60;99.90;;;;;;4916611;29;20216;-74
2023/11/21 15:11:25;;;;;;;1.97;1.13;;;11.60;99.90;;;;;;4916571;29;20261;-74
2023/11/21 15:13:52;;;;;;;4.37;1.90;;;11.70;99.90;;;;;;4916998;29;20214;-75
2023/11/21 15:16:19;;;;;;;2.53;1.80;;;11.70;99.90;;;;;;4916761;29;20633;-74
2023/11/21 15:18:46;;;;;;;4.70;1.70;;;11.80;99.90;;;;;;4916620;29;20241;-74
2023/11/21 15:21:13;;;;;;;3.17;1.63;;;11.70;99.90;;;;;;4916475;29;20205;-75
2023/11/21 15:23:41;;;;;;;3.50;1.80;;;11.70;99.90;;;;;;4916649;29;20224;-74
2023/11/21 15:26:10;;;;;;;5.57;1.77;;;11.70;99.90;;;;;;4916449;29;20233;-75
2023/11/21 15:28:37;;;;;;;3.70;1.63;;;11.70;99.90;;;;;;4916339;29;20209;-73
2023/11/21 15:31:04;;;;;;;2.73;1.40;;;11.70;99.90;;;;;;4919496;29;20613;-73
2023/11/21 15:33:31;;;;;;;2.80;1.60;;;11.60;99.90;;;;;;4920468;29;20248;-72
2023/11/21 15:35:58;;;;;;;3.90;1.83;;;11.50;99.90;;;;;;4919926;29;20712;-72
2023/11/21 15:38:25;;;;;;;3.43;1.67;;;11.50;99.90;;;;;;4919899;29;20241;-71
2023/11/21 15:40:52;;;;;;;3.43;1.73;;;11.50;99.90;;;;;;4920179;29;20213;-73
2023/11/21 15:43:21;;;;;;;3.70;1.77;;;11.60;99.90;;;;;;4920047;29;20205;-73
2023/11/21 15:45:47;;;;;;;3.43;1.63;;;11.50;99.90;;;;;;4919607;29;20304;-72
2023/11/21 15:48:16;;;;;;;4.80;2.30;;;11.60;99.90;;;;;;4919850;29;20205;-74
2023/11/21 15:50:44;;;;;;;3.03;1.53;;;11.60;99.90;;;;;;4919799;29;20760;-73
2023/11/21 15:53:10;;;;;;;3.70;2.03;;;11.60;99.90;;;;;;4919564;29;20224;-73
2023/11/21 15:55:42;;;;;;;5.60;2.07;;;11.60;99.90;;;;;;4919548;29;20234;-76
2023/11/21 15:58:09;;;;;;;4.53;2.37;;;11.40;99.90;;;;;;4915937;29;20237;-72
2023/11/21 16:00:37;;;;;;;6.43;2.80;;;11.40;99.90;;;;;;4920358;29;20214;-71
2023/11/21 16:03:04;;;;;;;4.07;2.07;;;11.40;99.90;;;;;;4921593;29;20253;-74
2023/11/21 16:05:31;;;;;;;7.43;2.43;;;11.40;99.90;;;;;;4938140;29;20603;-72
2023/11/21 16:07:57;;;;;;;4.07;2.27;;;11.40;99.90;;;;;;4916062;29;20249;-71
2023/11/21 16:10:24;;;;;;;4.10;1.77;;;11.40;99.90;;;;;;4900778;29;20210;-72
2023/11/21 16:12:51;;;;;;;4.57;2.03;;;11.40;99.90;;;;;;4910056;29;20212;-76
2023/11/21 16:15:18;;;;;;;5.90;2.53;;;11.40;99.90;;;;;;4918030;29;20224;-75
2023/11/21 16:17:47;;;;;;;7.03;2.30;;;11.50;99.90;;;;;;4926075;29;20614;-73
2023/11/21 16:20:15;;;;;;;5.93;2.67;;;11.50;99.90;;;;;;4917307;29;20245;-73
2023/11/21 16:22:42;;;;;;;5.63;2.57;;;11.40;99.90;;;;;;4917566;29;20288;-73
2023/11/21 16:25:11;;;;;;;6.50;3.00;;;11.40;99.90;;;;;;4917408;29;20320;-73
2023/11/21 16:27:38;;;;;;;5.07;2.17;;;11.40;99.90;;;;;;4915774;29;20613;-75
2023/11/21 16:30:06;;;;;;;4.87;2.33;;;11.40;99.90;;;;;;4917191;29;20294;-73
2023/11/21 16:32:35;;;;;;;6.13;2.67;;;11.40;99.90;;;;;;4917296;29;20293;-74
2023/11/21 16:35:03;;;;;;;6.93;2.97;;;11.40;99.90;;;;;;4916608;29;20325;-74
2023/11/21 16:37:31;;;;;;;6.30;2.70;;;11.40;99.90;;;;;;4909288;29;20297;-75
2023/11/21 16:39:58;;;;;;;6.50;2.77;;;11.30;99.90;;;;;;4898778;29;20242;-74
2023/11/21 16:42:27;;;;;;;6.10;2.80;;;11.20;99.90;;;;;;4910119;29;20210;-73
2023/11/21 16:44:54;;;;;;;4.90;2.23;;;11.20;99.90;;;;;;4916527;29;20205;-76
2023/11/21 16:47:23;;;;;;;5.33;2.83;;;11.20;99.90;;;;;;4912209;29;20584;-72
2023/11/21 16:49:50;;;;;;;7.17;2.97;;;11.20;99.90;;;;;;4916282;29;20238;-75
2023/11/21 16:52:22;;;;;;;6.00;2.70;;;11.20;99.90;;;;;;4923491;29;20207;-74
2023/11/21 16:54:49;;;;;;;8.17;3.20;;;11.10;99.90;;;;;;4926616;29;20272;-76
2023/11/21 16:57:16;;;;;;;7.40;3.50;;;11.10;99.90;;;;;;4911143;29;20567;-74
2023/11/21 16:59:44;;;;;;;6.63;3.10;;;11.10;99.90;;;;;;4897952;29;20238;-77
2023/11/21 17:02:11;;;;;;;9.50;3.10;;;11.10;99.90;;;;;;4908731;29;20209;-74
2023/11/21 17:04:41;;;;;;;11.30;3.80;;;11.20;99.90;;;;;;4917097;29;20308;-79
2023/11/21 17:07:08;;;;;;;5.37;2.77;;;11.20;99.90;;;;;;4912216;29;20305;-74
2023/11/21 17:09:36;;;;;;;5.00;2.57;;;11.30;99.90;;;;;;4897995;29;20214;-73
2023/11/21 17:12:05;;;;;;;7.30;2.57;;;11.30;99.90;;;;;;4906593;29;20220;-73
2023/11/21 17:14:33;;;;;;;7.00;3.00;;;11.30;99.90;;;;;;4916503;29;20217;-74
2023/11/21 17:17:00;;;;;;;8.27;3.03;;;11.20;99.90;;;;;;4912889;29;20242;-73
2023/11/21 17:19:31;;;;;;;6.93;2.90;;;11.20;99.90;;;;;;4898763;29;20244;-73
2023/11/21 17:21:58;;;;;;;6.20;3.00;;;11.10;99.90;;;;;;4906679;29;20237;-73
2023/11/21 17:24:25;;;;;;;7.83;3.20;;;11.10;99.90;;;;;;4913418;29;20201;-73
2023/11/21 17:26:53;;;;;;;8.40;3.27;;;11.10;99.90;;;;;;4913655;29;20755;-74
2023/11/21 17:29:20;;;;;;;7.60;3.67;;;11.20;99.90;;;;;;4917527;29;20569;-74
2023/11/21 17:31:47;;;;;;;8.53;3.17;;;11.20;99.90;;;;;;4917068;29;20216;-73
2023/11/21 17:34:18;;;;;;;7.37;3.27;;;11.20;99.90;;;;;;4915092;29;20210;-73
2023/11/21 17:36:45;;;;;;;9.70;3.93;;;11.30;99.90;;;;;;4904988;29;20593;-73
2023/11/21 17:39:12;;;;;;;7.27;2.83;;;11.30;99.90;;;;;;4912940;29;20244;-74
2023/11/21 17:41:39;;;;;;;8.53;3.57;;;11.30;99.90;;;;;;4916776;29;20229;-73
2023/11/21 17:44:08;;;;;;;7.00;2.93;;;11.20;99.90;;;;;;4903748;29;20641;-74
2023/11/21 17:46:36;;;;;;;6.57;2.70;;;11.20;99.90;;;;;;4914948;29;20304;-74
2023/11/21 17:49:03;;;;;;;8.47;3.70;;;11.20;99.90;;;;;;4904948;29;20222;-73
2023/11/21 17:51:30;;;;;;;8.10;2.77;;;11.20;99.90;;;;;;4915913;29;20304;-75
2023/11/21 17:54:01;;;;;;;8.80;3.20;;;11.20;99.90;;;;;;4921242;29;20217;-74
2023/11/21 17:56:28;;;;;;;7.20;3.27;;;11.10;99.90;;;;;;4914116;29;20693;-74
2023/11/21 17:58:56;;;;;;;8.03;3.20;;;11.00;99.90;;;;;;4916601;29;20240;-74
2023/11/21 18:01:30;;;;;;;7.70;3.43;;;11.00;99.90;;;;;;4916356;29;20739;-74
2023/11/21 18:03:58;;;;;;;9.60;3.37;;;11.00;99.90;;;;;;4915283;29;20217;-75
2023/11/21 18:06:25;;;;;;;9.97;3.03;;;11.10;99.90;;;;;;4916295;29;20225;-75
2023/11/21 18:08:52;;;;;;;8.17;3.50;;;11.10;99.90;;;;;;4912074;29;20209;-75
2023/11/21 18:11:18;;;;;;;9.97;4.13;;;11.10;99.90;;;;;;4913036;29;20202;-74
2023/11/21 18:13:45;;;;;;;8.73;3.37;;;11.10;99.90;;;;;;4912918;29;20207;-74
2023/11/21 18:16:12;;;;;;;12.00;4.00;;;11.10;99.90;;;;;;4912377;29;20251;-75
2023/11/21 18:18:40;;;;;;;10.97;3.67;;;11.00;99.90;;;;;;4912887;29;20308;-74
2023/11/21 18:21:08;;;;;;;8.87;4.27;;;11.00;99.90;;;;;;4916364;29;20210;-74
2023/11/21 18:23:35;;;;;;;10.43;4.33;;;10.90;99.90;;;;;;4916289;29;20206;-75
2023/11/21 18:26:01;;;;;;;11.67;4.33;;;10.90;99.90;;;;;;4916756;29;20229;-75
2023/11/21 18:28:28;;;;;;;13.47;4.40;;;10.90;99.90;;;;;;4916097;29;20605;-74
2023/11/21 18:30:55;;;;;;;10.10;3.80;;;10.80;99.90;;;;;;4916666;29;20209;-74
2023/11/21 18:33:22;;;;;;;11.03;4.43;;;10.90;99.90;;;;;;4916219;29;20232;-74
2023/11/21 18:35:51;;;;;;;12.60;4.70;;;10.80;99.90;;;;;;4916705;29;20234;-75
2023/11/21 18:38:17;;;;;;;11.70;4.17;;;10.80;99.90;;;;;;4916796;29;20220;-75
2023/11/21 18:40:44;;;;;;;13.07;4.17;;;10.80;99.90;;;;;;4916475;29;20241;-74
2023/11/21 18:43:11;;;;;;;11.30;4.83;;;10.70;99.90;;;;;;4916602;29;20209;-75
2023/11/21 18:45:38;;;;;;;12.43;4.80;;;10.60;99.90;;;;;;4910761;29;20222;-74
2023/11/21 18:48:05;;;;;;;10.63;4.53;;;10.70;99.90;;;;;;4915883;29;20296;-74
2023/11/21 18:50:32;;;;;;;11.83;5.00;;;10.60;99.90;;;;;;4916248;29;20214;-75
2023/11/21 18:53:00;;;;;;;10.03;4.13;;;10.60;99.90;;;;;;4915675;29;20288;-74
2023/11/21 18:55:27;;;;;;;10.43;4.53;;;10.60;99.90;;;;;;4916423;29;20229;-75
2023/11/21 18:57:54;;;;;;;12.07;4.00;;;10.70;99.90;;;;;;4916147;29;20297;-74
2023/11/21 19:00:22;;;;;;;11.20;4.73;;;10.80;99.90;;;;;;4916393;29;20328;-75
2023/11/21 19:02:49;;;;;;;8.43;3.93;;;10.90;99.90;;;;;;4915823;29;20220;-75
2023/11/21 19:05:16;;;;;;;9.63;4.03;;;10.90;99.90;;;;;;4916121;29;20650;-74
2023/11/21 19:07:42;;;;;;;10.33;3.17;;;10.90;99.90;;;;;;4916416;29;20245;-75
2023/11/21 19:10:11;;;;;;;6.60;3.00;;;10.80;99.90;;;;;;4917003;29;20241;-74
2023/11/21 19:12:39;;;;;;;5.93;2.57;;;10.80;99.90;;;;;;4916177;29;20291;-75
2023/11/21 19:15:08;;;;;;;6.00;2.83;;;10.70;99.90;;;;;;4915735;29;20320;-75
2023/11/21 19:17:35;;;;;;;8.70;3.20;;;10.70;99.90;;;;;;4914507;29;20225;-75
2023/11/21 19:20:03;;;;;;;6.97;2.97;;;10.70;99.90;;;;;;4914130;29;20297;-74
2023/11/21 19:22:30;;;;;;;8.90;3.20;;;10.60;99.90;;;;;;4915533;29;20206;-74
2023/11/21 19:24:57;;;;;;;9.17;3.63;;;10.60;99.90;;;;;;4903648;29;20209;-74
2023/11/21 19:27:24;;;;;;;10.43;4.20;;;10.60;99.90;;;;;;4915886;29;20214;-74
2023/11/21 19:29:51;;;;;;;13.97;4.20;;;10.60;99.90;;;;;;4915776;29;20296;-75
2023/11/21 19:32:18;;;;;;;11.87;3.87;;;10.40;99.90;;;;;;4915601;29;20297;-74
2023/11/21 19:34:45;;;;;;;9.53;3.70;;;10.40;99.90;;;;;;4915016;29;20315;-75
2023/11/21 19:37:12;;;;;;;11.10;4.03;;;10.40;99.90;;;;;;4915070;29;20681;-75
2023/11/21 19:39:39;;;;;;;10.40;3.87;;;10.20;99.90;;;;;;4914444;29;20697;-75
2023/11/21 19:42:06;;;;;;;10.63;3.83;;;10.20;99.90;;;;;;4915563;29;20220;-75
2023/11/21 19:44:36;;;;;;;12.13;4.60;;;10.30;99.90;;;;;;4915476;29;20218;-76
2023/11/21 19:47:03;;;;;;;11.57;4.23;;;10.30;99.90;;;;;;4915455;29;20315;-75
2023/11/21 19:49:30;;;;;;;10.40;4.63;;;10.20;99.90;;;;;;4914632;29;20281;-75
2023/11/21 19:51:57;;;;;;;12.30;4.77;;;10.20;99.90;;;;;;4915278;29;20566;-75
2023/11/21 19:54:23;;;;;;;14.87;5.57;;;10.20;99.90;;;;;;4914959;29;20205;-75
2023/11/21 19:56:50;;;;;;;8.50;3.33;;;10.10;99.90;;;;;;4915101;29;20272;-75
2023/11/21 19:59:17;;;;;;;9.60;3.57;;;9.90;99.90;;;;;;4915155;29;20225;-75
2023/11/21 20:01:45;;;;;;;13.27;4.57;;;9.80;99.90;;;;;;4915078;29;20641;-75
2023/11/21 20:04:12;;;;;;;11.00;4.60;;;9.80;99.90;;;;;;4914843;29;20202;-75
2023/11/21 20:06:39;;;;;;;10.93;3.93;;;9.60;99.90;;;;;;4915040;29;20229;-74
2023/11/21 20:09:06;;;;;;;11.93;3.60;;;9.50;99.90;;;;;;4914306;29;20760;-74
2023/11/21 20:11:33;;;;;;;12.93;4.30;;;9.40;99.90;;;;;;4915287;29;20280;-74
2023/11/21 20:14:00;;;;;;;10.90;4.07;;;9.40;99.90;;;;;;4907288;29;20230;-74
2023/11/21 20:16:27;;;;;;;10.87;4.10;;;9.60;99.90;;;;;;4907646;29;20231;-74
2023/11/21 20:18:55;;;;;;;13.60;3.90;;;9.50;99.90;;;;;;4910720;29;20213;-74
2023/11/21 20:21:22;;;;;;;13.90;4.93;;;9.60;99.90;;;;;;4904336;29;20584;-75
2023/11/21 20:23:49;;;;;;;12.57;3.83;;;9.40;99.90;;;;;;4918917;29;20205;-75
2023/11/21 20:26:22;;;;;;;13.07;4.13;;;9.40;99.90;;;;;;4918816;29;20229;-75
2023/11/21 20:28:49;;;;;;;10.80;4.37;;;9.40;99.90;;;;;;4907602;29;20210;-74
2023/11/21 20:31:16;;;;;;;14.43;4.83;;;9.50;99.90;;;;;;4918779;29;20206;-74
2023/11/21 20:33:43;;;;;;;12.17;4.47;;;9.50;99.90;;;;;;4918526;29;20736;-74
2023/11/21 20:36:11;;;;;;;11.23;4.60;;;9.40;99.90;;;;;;4918201;29;20257;-74
2023/11/21 20:38:38;;;;;;;17.47;5.27;;;9.30;99.90;;;;;;4918695;29;20218;-74
2023/11/21 20:41:06;;;;;;;9.33;4.27;;;9.40;99.90;;;;;;4917506;29;20239;-74
2023/11/21 20:43:33;;;;;;;15.97;4.90;;;9.40;99.90;;;;;;4918138;29;20312;-74
2023/11/21 20:46:00;;;;;;;10.53;4.33;;;9.20;99.90;;;;;;4917921;29;20285;-74
2023/11/21 20:48:28;;;;;;;10.03;4.67;;;9.00;99.90;;;;;;4907492;29;20280;-74
2023/11/21 20:50:55;;;;;;;9.43;4.00;;;8.90;99.90;;;;;;4917424;29;20888;-74
2023/11/21 20:53:24;;;;;;;14.23;5.03;;;8.60;99.90;;;;;;4918544;29;20209;-74
2023/11/21 20:55:52;;;;;;;12.30;4.83;;;8.50;99.90;;;;;;4918146;29;20285;-74
2023/11/21 20:58:19;;;;;;;9.63;4.10;;;8.50;99.90;;;;;;4918094;29;20233;-74
2023/11/21 21:00:46;;;;;;;12.17;4.47;;;8.50;99.90;;;;;;4917837;29;20726;-74
2023/11/21 21:03:14;;;;;;;9.23;3.70;;;8.50;99.90;;;;;;4918421;29;20241;-74
2023/11/21 21:05:41;;;;;;;9.73;3.67;;;8.50;99.90;;;;;;4917843;29;20234;-74
2023/11/21 21:08:08;;;;;;;8.30;3.80;;;8.70;99.90;;;;;;4918446;29;20209;-74
2023/11/21 21:10:36;;;;;;;7.87;3.83;;;8.80;99.90;;;;;;4918155;29;20636;-74
2023/11/21 21:13:03;;;;;;;8.70;4.07;;;8.80;99.90;;;;;;4918477;29;20205;-74
2023/11/21 21:15:30;;;;;;;11.03;4.03;;;8.50;99.90;;;;;;4906282;29;20229;-74
2023/11/21 21:17:57;;;;;;;12.13;4.07;;;8.50;99.90;;;;;;4918231;29;20213;-74
2023/11/21 21:20:24;;;;;;;8.40;4.20;;;8.40;99.90;;;;;;4917487;29;20244;-74
2023/11/21 21:22:52;;;;;;;8.30;4.10;;;8.30;99.90;;;;;;4917324;29;20792;-74
2023/11/21 21:25:19;;;;;;;9.60;4.13;;;8.20;99.90;;;;;;4918163;29;20226;-74
2023/11/21 21:27:48;;;;;;;9.97;4.30;;;8.10;99.90;;;;;;4918432;29;20296;-74
2023/11/21 21:30:15;;;;;;;12.67;4.53;;;8.00;99.90;;;;;;4918326;29;20262;-74
2023/11/21 21:32:42;;;;;;;10.43;4.20;;;8.00;99.90;;;;;;4918216;29;20205;-74
